sensor_id;sensor_type;location;lat;lon;timestamp;P1;durP1;ratioP1;P2;durP2;ratioP2
35290;SDS011;21411;50.024;19.220;2023-05-08T00:02:18;5.80;;;4.90;;
35290;SDS011;21411;50.024;19.220;2023-05-08T00:04:44;4.70;;;4.30;;
35290;SDS011;21411;50.024;19.220;2023-05-08T00:07:11;5.20;;;4.70;;
35290;SDS011;21411;50.024;19.220;2023-05-08T00:09:37;4.80;;;4.20;;
35290;SDS011;21411;50.024;19.220;2023-05-08T00:12:04;5.50;;;5.00;;
35290;SDS011;21411;50.024;19.220;2023-05-08T00:14:30;6.50;;;5.90;;
35290;SDS011;21411;50.024;19.220;2023-05-08T00:16:57;5.80;;;5.30;;
35290;SDS011;21411;50.024;19.220;2023-05-08T00:19:23;5.90;;;5.20;;
35290;SDS011;21411;50.024;19.220;2023-05-08T00:21:50;6.80;;;5.00;;
35290;SDS011;21411;50.024;19.220;2023-05-08T00:24:17;5.60;;;5.00;;
35290;SDS011;21411;50.024;19.220;2023-05-08T00:26:43;5.50;;;5.00;;
35290;SDS011;21411;50.024;19.220;2023-05-08T00:29:11;5.70;;;5.20;;
35290;SDS011;21411;50.024;19.220;2023-05-08T00:31:37;5.50;;;5.00;;
35290;SDS011;21411;50.024;19.220;2023-05-08T00:34:04;6.00;;;5.50;;
35290;SDS011;21411;50.024;19.220;2023-05-08T00:36:30;5.30;;;4.80;;
35290;SDS011;21411;50.024;19.220;2023-05-08T00:38:57;5.50;;;5.00;;
35290;SDS011;21411;50.024;19.220;2023-05-08T00:41:23;5.90;;;5.40;;
35290;SDS011;21411;50.024;19.220;2023-05-08T00:43:50;5.30;;;4.80;;
35290;SDS011;21411;50.024;19.220;2023-05-08T00:46:16;5.20;;;4.80;;
35290;SDS011;21411;50.024;19.220;2023-05-08T00:48:43;7.40;;;5.40;;
35290;SDS011;21411;50.024;19.220;2023-05-08T00:51:11;5.60;;;5.10;;
35290;SDS011;21411;50.024;19.220;2023-05-08T00:53:39;7.30;;;6.00;;
35290;SDS011;21411;50.024;19.220;2023-05-08T00:56:12;5.30;;;4.80;;
35290;SDS011;21411;50.024;19.220;2023-05-08T00:58:40;8.00;;;5.30;;
35290;SDS011;21411;50.024;19.220;2023-05-08T01:01:07;6.70;;;4.90;;
35290;SDS011;21411;50.024;19.220;2023-05-08T01:03:34;5.90;;;5.30;;
35290;SDS011;21411;50.024;19.220;2023-05-08T01:06:02;5.20;;;4.70;;
35290;SDS011;21411;50.024;19.220;2023-05-08T01:08:29;4.90;;;4.40;;
35290;SDS011;21411;50.024;19.220;2023-05-08T01:36:22;6.10;;;5.30;;
35290;SDS011;21411;50.024;19.220;2023-05-08T01:39:21;6.50;;;5.90;;
35290;SDS011;21411;50.024;19.220;2023-05-08T01:42:01;7.20;;;6.50;;
35290;SDS011;21411;50.024;19.220;2023-05-08T01:44:52;7.10;;;6.40;;
35290;SDS011;21411;50.024;19.220;2023-05-08T01:47:23;8.30;;;7.50;;
35290;SDS011;21411;50.024;19.220;2023-05-08T01:49:58;7.50;;;6.80;;
35290;SDS011;21411;50.024;19.220;2023-05-08T01:52:48;6.60;;;5.80;;
35290;SDS011;21411;50.024;19.220;2023-05-08T01:55:25;6.90;;;6.30;;
35290;SDS011;21411;50.024;19.220;2023-05-08T01:57:59;7.90;;;7.10;;
35290;SDS011;21411;50.024;19.220;2023-05-08T02:00:32;7.30;;;6.70;;
35290;SDS011;21411;50.024;19.220;2023-05-08T02:02:58;7.10;;;6.10;;
35290;SDS011;21411;50.024;19.220;2023-05-08T02:05:25;6.60;;;6.00;;
35290;SDS011;21411;50.024;19.220;2023-05-08T02:07:53;7.30;;;6.60;;
35290;SDS011;21411;50.024;19.220;2023-05-08T02:10:20;7.40;;;6.70;;
35290;SDS011;21411;50.024;19.220;2023-05-08T02:12:49;7.30;;;6.60;;
35290;SDS011;21411;50.024;19.220;2023-05-08T02:15:18;7.30;;;6.70;;
35290;SDS011;21411;50.024;19.220;2023-05-08T02:17:47;7.70;;;6.50;;
35290;SDS011;21411;50.024;19.220;2023-05-08T02:20:14;7.20;;;6.50;;
35290;SDS011;21411;50.024;19.220;2023-05-08T02:22:42;8.50;;;6.50;;
35290;SDS011;21411;50.024;19.220;2023-05-08T02:25:10;6.90;;;6.20;;
35290;SDS011;21411;50.024;19.220;2023-05-08T02:27:40;7.60;;;6.90;;
35290;SDS011;21411;50.024;19.220;2023-05-08T02:30:14;7.80;;;7.10;;
35290;SDS011;21411;50.024;19.220;2023-05-08T02:32:42;7.30;;;6.60;;
35290;SDS011;21411;50.024;19.220;2023-05-08T02:35:17;8.30;;;7.50;;
35290;SDS011;21411;50.024;19.220;2023-05-08T02:37:45;7.60;;;6.90;;
35290;SDS011;21411;50.024;19.220;2023-05-08T02:40:16;8.10;;;6.70;;
35290;SDS011;21411;50.024;19.220;2023-05-08T02:42:43;7.00;;;6.40;;
35290;SDS011;21411;50.024;19.220;2023-05-08T02:45:11;6.10;;;5.60;;
35290;SDS011;21411;50.024;19.220;2023-05-08T02:53:24;6.50;;;5.90;;
35290;SDS011;21411;50.024;19.220;2023-05-08T02:56:02;6.70;;;6.00;;
35290;SDS011;21411;50.024;19.220;2023-05-08T02:58:55;6.50;;;5.90;;
35290;SDS011;21411;50.024;19.220;2023-05-08T03:01:35;7.20;;;6.40;;
35290;SDS011;21411;50.024;19.220;2023-05-08T03:04:07;7.50;;;6.80;;
35290;SDS011;21411;50.024;19.220;2023-05-08T03:06:37;7.10;;;6.40;;
35290;SDS011;21411;50.024;19.220;2023-05-08T03:09:07;6.90;;;6.20;;
35290;SDS011;21411;50.024;19.220;2023-05-08T03:11:41;8.20;;;6.80;;
35290;SDS011;21411;50.024;19.220;2023-05-08T03:14:10;8.20;;;6.20;;
35290;SDS011;21411;50.024;19.220;2023-05-08T03:16:40;7.40;;;6.30;;
35290;SDS011;21411;50.024;19.220;2023-05-08T03:19:30;7.70;;;7.00;;
35290;SDS011;21411;50.024;19.220;2023-05-08T03:22:00;10.40;;;7.40;;
35290;SDS011;21411;50.024;19.220;2023-05-08T03:24:28;5.90;;;5.40;;
35290;SDS011;21411;50.024;19.220;2023-05-08T03:26:58;7.40;;;6.80;;
35290;SDS011;21411;50.024;19.220;2023-05-08T03:29:26;7.30;;;6.60;;
35290;SDS011;21411;50.024;19.220;2023-05-08T03:31:54;6.60;;;6.00;;
35290;SDS011;21411;50.024;19.220;2023-05-08T03:34:23;6.80;;;6.10;;
35290;SDS011;21411;50.024;19.220;2023-05-08T03:36:51;8.20;;;7.20;;
35290;SDS011;21411;50.024;19.220;2023-05-08T03:39:17;7.60;;;6.90;;
35290;SDS011;21411;50.024;19.220;2023-05-08T03:41:44;7.00;;;6.00;;
35290;SDS011;21411;50.024;19.220;2023-05-08T03:44:11;6.90;;;5.60;;
35290;SDS011;21411;50.024;19.220;2023-05-08T03:46:38;6.40;;;5.80;;
35290;SDS011;21411;50.024;19.220;2023-05-08T03:49:07;6.80;;;5.90;;
35290;SDS011;21411;50.024;19.220;2023-05-08T03:51:35;5.70;;;5.20;;
35290;SDS011;21411;50.024;19.220;2023-05-08T03:54:03;6.10;;;5.40;;
35290;SDS011;21411;50.024;19.220;2023-05-08T03:56:30;6.60;;;6.00;;
35290;SDS011;21411;50.024;19.220;2023-05-08T04:01:51;7.30;;;6.20;;
35290;SDS011;21411;50.024;19.220;2023-05-08T04:04:32;6.70;;;6.00;;
35290;SDS011;21411;50.024;19.220;2023-05-08T04:07:22;6.50;;;6.00;;
35290;SDS011;21411;50.024;19.220;2023-05-08T04:10:06;7.20;;;6.60;;
35290;SDS011;21411;50.024;19.220;2023-05-08T04:15:14;8.20;;;6.80;;
35290;SDS011;21411;50.024;19.220;2023-05-08T04:17:54;7.50;;;6.50;;
35290;SDS011;21411;50.024;19.220;2023-05-08T04:20:25;8.40;;;6.60;;
35290;SDS011;21411;50.024;19.220;2023-05-08T04:22:54;7.00;;;5.10;;
35290;SDS011;21411;50.024;19.220;2023-05-08T04:25:23;6.00;;;5.40;;
35290;SDS011;21411;50.024;19.220;2023-05-08T04:27:51;4.90;;;4.40;;
35290;SDS011;21411;50.024;19.220;2023-05-08T04:30:18;5.90;;;5.30;;
35290;SDS011;21411;50.024;19.220;2023-05-08T04:32:45;5.20;;;4.70;;
35290;SDS011;21411;50.024;19.220;2023-05-08T04:35:12;4.90;;;4.40;;
35290;SDS011;21411;50.024;19.220;2023-05-08T04:37:40;5.60;;;5.00;;
35290;SDS011;21411;50.024;19.220;2023-05-08T04:40:10;5.00;;;4.50;;
35290;SDS011;21411;50.024;19.220;2023-05-08T04:42:37;6.50;;;4.80;;
35290;SDS011;21411;50.024;19.220;2023-05-08T04:45:05;5.50;;;4.90;;
35290;SDS011;21411;50.024;19.220;2023-05-08T04:47:32;5.00;;;4.50;;
35290;SDS011;21411;50.024;19.220;2023-05-08T04:49:58;5.90;;;4.80;;
35290;SDS011;21411;50.024;19.220;2023-05-08T04:52:24;5.50;;;4.90;;
35290;SDS011;21411;50.024;19.220;2023-05-08T04:54:51;5.10;;;4.70;;
35290;SDS011;21411;50.024;19.220;2023-05-08T04:57:17;6.10;;;5.30;;
35290;SDS011;21411;50.024;19.220;2023-05-08T04:59:44;5.90;;;5.40;;
35290;SDS011;21411;50.024;19.220;2023-05-08T05:02:11;6.10;;;5.00;;
35290;SDS011;21411;50.024;19.220;2023-05-08T05:04:38;6.30;;;5.60;;
35290;SDS011;21411;50.024;19.220;2023-05-08T05:07:04;5.70;;;5.20;;
35290;SDS011;21411;50.024;19.220;2023-05-08T05:09:31;8.50;;;5.60;;
35290;SDS011;21411;50.024;19.220;2023-05-08T05:12:02;5.20;;;4.70;;
35290;SDS011;21411;50.024;19.220;2023-05-08T05:14:29;6.30;;;5.70;;
35290;SDS011;21411;50.024;19.220;2023-05-08T05:16:56;6.30;;;5.60;;
35290;SDS011;21411;50.024;19.220;2023-05-08T05:19:22;5.60;;;5.10;;
35290;SDS011;21411;50.024;19.220;2023-05-08T05:21:49;6.30;;;5.10;;
35290;SDS011;21411;50.024;19.220;2023-05-08T05:24:15;6.50;;;5.30;;
35290;SDS011;21411;50.024;19.220;2023-05-08T05:26:42;6.00;;;5.40;;
35290;SDS011;21411;50.024;19.220;2023-05-08T05:29:08;7.80;;;4.40;;
35290;SDS011;21411;50.024;19.220;2023-05-08T05:31:35;6.00;;;5.20;;
35290;SDS011;21411;50.024;19.220;2023-05-08T05:34:02;7.10;;;5.90;;
35290;SDS011;21411;50.024;19.220;2023-05-08T05:36:29;6.50;;;5.80;;
35290;SDS011;21411;50.024;19.220;2023-05-08T05:38:56;6.20;;;5.60;;
35290;SDS011;21411;50.024;19.220;2023-05-08T05:41:23;5.80;;;5.30;;
35290;SDS011;21411;50.024;19.220;2023-05-08T05:43:49;6.30;;;5.70;;
35290;SDS011;21411;50.024;19.220;2023-05-08T05:46:16;5.30;;;4.90;;
35290;SDS011;21411;50.024;19.220;2023-05-08T05:48:43;5.50;;;5.10;;
35290;SDS011;21411;50.024;19.220;2023-05-08T05:51:10;5.70;;;5.00;;
35290;SDS011;21411;50.024;19.220;2023-05-08T05:53:37;6.20;;;5.00;;
35290;SDS011;21411;50.024;19.220;2023-05-08T05:56:03;5.90;;;4.70;;
35290;SDS011;21411;50.024;19.220;2023-05-08T05:58:30;5.70;;;5.20;;
35290;SDS011;21411;50.024;19.220;2023-05-08T06:00:57;6.00;;;5.30;;
35290;SDS011;21411;50.024;19.220;2023-05-08T06:03:26;5.30;;;4.90;;
35290;SDS011;21411;50.024;19.220;2023-05-08T06:05:53;5.00;;;4.60;;
35290;SDS011;21411;50.024;19.220;2023-05-08T06:08:19;5.80;;;5.10;;
35290;SDS011;21411;50.024;19.220;2023-05-08T06:10:46;5.50;;;5.00;;
35290;SDS011;21411;50.024;19.220;2023-05-08T06:13:12;6.80;;;5.70;;
35290;SDS011;21411;50.024;19.220;2023-05-08T06:15:39;5.80;;;5.30;;
35290;SDS011;21411;50.024;19.220;2023-05-08T06:18:05;6.10;;;5.30;;
35290;SDS011;21411;50.024;19.220;2023-05-08T06:20:35;7.90;;;5.70;;
35290;SDS011;21411;50.024;19.220;2023-05-08T06:23:02;7.30;;;5.80;;
35290;SDS011;21411;50.024;19.220;2023-05-08T06:25:29;5.60;;;5.20;;
35290;SDS011;21411;50.024;19.220;2023-05-08T06:27:56;5.40;;;5.00;;
35290;SDS011;21411;50.024;19.220;2023-05-08T06:30:22;5.80;;;5.30;;
35290;SDS011;21411;50.024;19.220;2023-05-08T06:32:49;13.10;;;9.30;;
35290;SDS011;21411;50.024;19.220;2023-05-08T06:35:15;6.70;;;6.00;;
35290;SDS011;21411;50.024;19.220;2023-05-08T06:37:44;5.90;;;5.40;;
35290;SDS011;21411;50.024;19.220;2023-05-08T06:40:11;5.50;;;4.90;;
35290;SDS011;21411;50.024;19.220;2023-05-08T06:42:39;5.20;;;4.70;;
35290;SDS011;21411;50.024;19.220;2023-05-08T06:45:06;7.40;;;6.00;;
35290;SDS011;21411;50.024;19.220;2023-05-08T06:47:33;4.70;;;4.20;;
35290;SDS011;21411;50.024;19.220;2023-05-08T06:50:00;5.00;;;4.50;;
35290;SDS011;21411;50.024;19.220;2023-05-08T06:52:26;5.80;;;4.50;;
35290;SDS011;21411;50.024;19.220;2023-05-08T06:54:53;4.40;;;4.00;;
35290;SDS011;21411;50.024;19.220;2023-05-08T06:57:19;5.20;;;4.60;;
35290;SDS011;21411;50.024;19.220;2023-05-08T06:59:46;7.30;;;4.50;;
35290;SDS011;21411;50.024;19.220;2023-05-08T07:02:12;4.40;;;4.00;;
35290;SDS011;21411;50.024;19.220;2023-05-08T07:04:42;4.30;;;3.90;;
35290;SDS011;21411;50.024;19.220;2023-05-08T07:07:09;4.50;;;3.80;;
35290;SDS011;21411;50.024;19.220;2023-05-08T07:09:36;4.60;;;4.00;;
35290;SDS011;21411;50.024;19.220;2023-05-08T07:12:03;5.40;;;3.80;;
35290;SDS011;21411;50.024;19.220;2023-05-08T07:14:30;5.50;;;4.20;;
35290;SDS011;21411;50.024;19.220;2023-05-08T07:16:56;4.70;;;4.00;;
35290;SDS011;21411;50.024;19.220;2023-05-08T07:19:23;4.30;;;3.90;;
35290;SDS011;21411;50.024;19.220;2023-05-08T07:21:50;5.10;;;3.80;;
35290;SDS011;21411;50.024;19.220;2023-05-08T07:24:16;4.00;;;3.60;;
35290;SDS011;21411;50.024;19.220;2023-05-08T07:26:43;3.80;;;3.40;;
35290;SDS011;21411;50.024;19.220;2023-05-08T07:29:09;4.00;;;3.60;;
35290;SDS011;21411;50.024;19.220;2023-05-08T07:31:37;4.10;;;3.70;;
35290;SDS011;21411;50.024;19.220;2023-05-08T07:34:05;7.30;;;3.70;;
35290;SDS011;21411;50.024;19.220;2023-05-08T07:36:32;4.70;;;3.80;;
35290;SDS011;21411;50.024;19.220;2023-05-08T07:38:59;4.20;;;3.30;;
35290;SDS011;21411;50.024;19.220;2023-05-08T07:41:25;4.20;;;3.30;;
35290;SDS011;21411;50.024;19.220;2023-05-08T07:43:52;5.00;;;4.40;;
35290;SDS011;21411;50.024;19.220;2023-05-08T07:46:18;4.10;;;3.50;;
35290;SDS011;21411;50.024;19.220;2023-05-08T07:48:45;3.30;;;3.00;;
35290;SDS011;21411;50.024;19.220;2023-05-08T07:51:12;3.80;;;3.40;;
35290;SDS011;21411;50.024;19.220;2023-05-08T07:53:39;4.10;;;3.30;;
35290;SDS011;21411;50.024;19.220;2023-05-08T07:56:05;2.80;;;2.60;;
35290;SDS011;21411;50.024;19.220;2023-05-08T07:58:32;5.30;;;4.60;;
35290;SDS011;21411;50.024;19.220;2023-05-08T08:00:58;6.80;;;4.50;;
35290;SDS011;21411;50.024;19.220;2023-05-08T08:03:25;5.80;;;3.90;;
35290;SDS011;21411;50.024;19.220;2023-05-08T08:05:51;5.10;;;3.70;;
35290;SDS011;21411;50.024;19.220;2023-05-08T08:08:18;9.20;;;4.20;;
35290;SDS011;21411;50.024;19.220;2023-05-08T08:10:45;8.30;;;3.70;;
35290;SDS011;21411;50.024;19.220;2023-05-08T08:13:11;4.80;;;3.40;;
35290;SDS011;21411;50.024;19.220;2023-05-08T08:15:38;4.00;;;3.60;;
35290;SDS011;21411;50.024;19.220;2023-05-08T08:18:05;4.50;;;3.30;;
35290;SDS011;21411;50.024;19.220;2023-05-08T08:20:31;4.40;;;3.10;;
35290;SDS011;21411;50.024;19.220;2023-05-08T08:22:58;4.10;;;3.70;;
35290;SDS011;21411;50.024;19.220;2023-05-08T08:25:24;3.60;;;3.30;;
35290;SDS011;21411;50.024;19.220;2023-05-08T08:27:51;5.30;;;4.10;;
35290;SDS011;21411;50.024;19.220;2023-05-08T08:30:17;4.60;;;4.00;;
35290;SDS011;21411;50.024;19.220;2023-05-08T08:32:44;4.10;;;3.20;;
35290;SDS011;21411;50.024;19.220;2023-05-08T08:35:10;3.30;;;3.00;;
35290;SDS011;21411;50.024;19.220;2023-05-08T08:37:37;4.60;;;3.50;;
35290;SDS011;21411;50.024;19.220;2023-05-08T08:40:04;3.70;;;3.40;;
35290;SDS011;21411;50.024;19.220;2023-05-08T08:42:31;3.80;;;3.00;;
35290;SDS011;21411;50.024;19.220;2023-05-08T08:44:58;4.80;;;3.20;;
35290;SDS011;21411;50.024;19.220;2023-05-08T08:47:28;7.70;;;3.80;;
35290;SDS011;21411;50.024;19.220;2023-05-08T08:50:02;11.00;;;4.20;;
35290;SDS011;21411;50.024;19.220;2023-05-08T08:52:30;10.40;;;5.20;;
35290;SDS011;21411;50.024;19.220;2023-05-08T08:55:04;10.20;;;4.60;;
35290;SDS011;21411;50.024;19.220;2023-05-08T08:57:33;5.60;;;3.70;;
35290;SDS011;21411;50.024;19.220;2023-05-08T09:00:05;3.70;;;3.40;;
35290;SDS011;21411;50.024;19.220;2023-05-08T09:02:34;5.00;;;3.70;;
35290;SDS011;21411;50.024;19.220;2023-05-08T09:05:01;10.60;;;5.90;;
35290;SDS011;21411;50.024;19.220;2023-05-08T09:07:29;8.10;;;5.20;;
35290;SDS011;21411;50.024;19.220;2023-05-08T09:09:55;4.50;;;3.30;;
35290;SDS011;21411;50.024;19.220;2023-05-08T09:12:22;4.80;;;3.70;;
35290;SDS011;21411;50.024;19.220;2023-05-08T09:14:49;8.20;;;5.80;;
35290;SDS011;21411;50.024;19.220;2023-05-08T09:17:16;3.60;;;3.20;;
35290;SDS011;21411;50.024;19.220;2023-05-08T09:19:42;4.20;;;3.40;;
35290;SDS011;21411;50.024;19.220;2023-05-08T09:22:09;3.30;;;3.00;;
35290;SDS011;21411;50.024;19.220;2023-05-08T09:27:22;4.00;;;2.70;;
35290;SDS011;21411;50.024;19.220;2023-05-08T09:30:06;4.30;;;2.80;;
35290;SDS011;21411;50.024;19.220;2023-05-08T09:32:35;7.90;;;3.40;;
35290;SDS011;21411;50.024;19.220;2023-05-08T09:35:03;3.60;;;2.90;;
35290;SDS011;21411;50.024;19.220;2023-05-08T09:37:31;4.30;;;3.20;;
35290;SDS011;21411;50.024;19.220;2023-05-08T09:40:20;5.00;;;3.20;;
35290;SDS011;21411;50.024;19.220;2023-05-08T09:42:47;4.70;;;3.50;;
35290;SDS011;21411;50.024;19.220;2023-05-08T09:45:25;4.60;;;3.70;;
35290;SDS011;21411;50.024;19.220;2023-05-08T09:47:53;3.80;;;3.50;;
35290;SDS011;21411;50.024;19.220;2023-05-08T09:50:19;3.90;;;3.50;;
35290;SDS011;21411;50.024;19.220;2023-05-08T09:52:46;3.30;;;3.00;;
35290;SDS011;21411;50.024;19.220;2023-05-08T09:55:14;5.90;;;3.40;;
35290;SDS011;21411;50.024;19.220;2023-05-08T09:57:51;5.30;;;3.00;;
35290;SDS011;21411;50.024;19.220;2023-05-08T10:00:17;4.40;;;3.30;;
35290;SDS011;21411;50.024;19.220;2023-05-08T10:02:57;4.60;;;4.10;;
35290;SDS011;21411;50.024;19.220;2023-05-08T10:05:26;3.70;;;3.30;;
35290;SDS011;21411;50.024;19.220;2023-05-08T10:07:57;5.30;;;3.10;;
35290;SDS011;21411;50.024;19.220;2023-05-08T10:10:25;4.20;;;2.80;;
35290;SDS011;21411;50.024;19.220;2023-05-08T10:12:53;4.10;;;3.10;;
35290;SDS011;21411;50.024;19.220;2023-05-08T10:15:22;4.30;;;2.90;;
35290;SDS011;21411;50.024;19.220;2023-05-08T10:17:53;4.40;;;2.70;;
35290;SDS011;21411;50.024;19.220;2023-05-08T10:20:28;3.20;;;2.70;;
35290;SDS011;21411;50.024;19.220;2023-05-08T10:22:56;2.80;;;2.60;;
35290;SDS011;21411;50.024;19.220;2023-05-08T10:25:24;3.20;;;2.80;;
35290;SDS011;21411;50.024;19.220;2023-05-08T10:27:56;3.30;;;2.90;;
35290;SDS011;21411;50.024;19.220;2023-05-08T10:30:30;3.50;;;2.80;;
35290;SDS011;21411;50.024;19.220;2023-05-08T10:32:59;3.70;;;3.10;;
35290;SDS011;21411;50.024;19.220;2023-05-08T10:35:28;5.80;;;4.10;;
35290;SDS011;21411;50.024;19.220;2023-05-08T10:37:56;8.90;;;6.20;;
35290;SDS011;21411;50.024;19.220;2023-05-08T10:40:24;12.00;;;6.60;;
35290;SDS011;21411;50.024;19.220;2023-05-08T10:42:50;5.20;;;3.90;;
35290;SDS011;21411;50.024;19.220;2023-05-08T10:45:17;3.00;;;2.80;;
35290;SDS011;21411;50.024;19.220;2023-05-08T10:53:54;3.40;;;3.10;;
35290;SDS011;21411;50.024;19.220;2023-05-08T10:56:27;5.40;;;3.00;;
35290;SDS011;21411;50.024;19.220;2023-05-08T10:58:54;3.40;;;3.00;;
35290;SDS011;21411;50.024;19.220;2023-05-08T11:01:22;3.80;;;3.20;;
35290;SDS011;21411;50.024;19.220;2023-05-08T11:03:49;3.10;;;2.80;;
35290;SDS011;21411;50.024;19.220;2023-05-08T11:06:16;3.50;;;3.10;;
35290;SDS011;21411;50.024;19.220;2023-05-08T11:09:03;4.20;;;3.80;;
35290;SDS011;21411;50.024;19.220;2023-05-08T11:11:30;5.80;;;3.40;;
35290;SDS011;21411;50.024;19.220;2023-05-08T11:19:19;5.60;;;4.00;;
35290;SDS011;21411;50.024;19.220;2023-05-08T11:24:49;3.90;;;3.10;;
35290;SDS011;21411;50.024;19.220;2023-05-08T11:27:38;5.20;;;4.40;;
35290;SDS011;21411;50.024;19.220;2023-05-08T11:35:48;4.10;;;3.70;;
35290;SDS011;21411;50.024;19.220;2023-05-08T11:38:26;5.20;;;3.90;;
35290;SDS011;21411;50.024;19.220;2023-05-08T11:43:28;5.50;;;4.20;;
35290;SDS011;21411;50.024;19.220;2023-05-08T11:46:02;6.10;;;3.90;;
35290;SDS011;21411;50.024;19.220;2023-05-08T11:48:30;3.70;;;3.40;;
35290;SDS011;21411;50.024;19.220;2023-05-08T11:50:58;3.80;;;3.50;;
35290;SDS011;21411;50.024;19.220;2023-05-08T11:53:25;4.20;;;3.80;;
35290;SDS011;21411;50.024;19.220;2023-05-08T11:55:52;3.60;;;3.20;;
35290;SDS011;21411;50.024;19.220;2023-05-08T11:58:20;3.80;;;3.50;;
35290;SDS011;21411;50.024;19.220;2023-05-08T12:00:47;4.20;;;3.90;;
35290;SDS011;21411;50.024;19.220;2023-05-08T12:03:14;5.10;;;4.20;;
35290;SDS011;21411;50.024;19.220;2023-05-08T12:05:46;5.00;;;3.70;;
35290;SDS011;21411;50.024;19.220;2023-05-08T12:08:14;4.50;;;4.00;;
35290;SDS011;21411;50.024;19.220;2023-05-08T12:13:18;5.30;;;4.30;;
35290;SDS011;21411;50.024;19.220;2023-05-08T12:15:45;4.50;;;3.90;;
35290;SDS011;21411;50.024;19.220;2023-05-08T12:18:12;6.00;;;4.40;;
35290;SDS011;21411;50.024;19.220;2023-05-08T12:20:39;5.90;;;3.80;;
35290;SDS011;21411;50.024;19.220;2023-05-08T12:23:06;5.40;;;4.60;;
35290;SDS011;21411;50.024;19.220;2023-05-08T12:25:33;4.20;;;3.80;;
35290;SDS011;21411;50.024;19.220;2023-05-08T12:28:02;3.80;;;3.50;;
35290;SDS011;21411;50.024;19.220;2023-05-08T12:30:29;5.00;;;3.90;;
35290;SDS011;21411;50.024;19.220;2023-05-08T12:32:56;4.90;;;4.10;;
35290;SDS011;21411;50.024;19.220;2023-05-08T12:35:22;4.80;;;4.30;;
35290;SDS011;21411;50.024;19.220;2023-05-08T12:37:50;5.80;;;3.80;;
35290;SDS011;21411;50.024;19.220;2023-05-08T12:42:54;5.10;;;3.80;;
35290;SDS011;21411;50.024;19.220;2023-05-08T12:45:21;4.70;;;3.40;;
35290;SDS011;21411;50.024;19.220;2023-05-08T12:47:51;4.80;;;4.00;;
35290;SDS011;21411;50.024;19.220;2023-05-08T12:50:19;5.20;;;3.60;;
35290;SDS011;21411;50.024;19.220;2023-05-08T12:52:47;4.00;;;3.70;;
35290;SDS011;21411;50.024;19.220;2023-05-08T12:57:47;6.60;;;4.20;;
35290;SDS011;21411;50.024;19.220;2023-05-08T13:00:15;4.60;;;3.70;;
35290;SDS011;21411;50.024;19.220;2023-05-08T13:02:51;4.80;;;4.10;;
35290;SDS011;21411;50.024;19.220;2023-05-08T13:05:19;4.30;;;3.50;;
35290;SDS011;21411;50.024;19.220;2023-05-08T13:07:50;4.70;;;3.50;;
35290;SDS011;21411;50.024;19.220;2023-05-08T13:10:17;4.30;;;3.90;;
35290;SDS011;21411;50.024;19.220;2023-05-08T13:12:46;4.50;;;3.60;;
35290;SDS011;21411;50.024;19.220;2023-05-08T13:15:12;4.30;;;3.50;;
35290;SDS011;21411;50.024;19.220;2023-05-08T13:17:39;3.60;;;3.30;;
35290;SDS011;21411;50.024;19.220;2023-05-08T13:20:06;5.80;;;3.40;;
35290;SDS011;21411;50.024;19.220;2023-05-08T13:22:33;5.00;;;3.70;;
35290;SDS011;21411;50.024;19.220;2023-05-08T13:24:59;3.80;;;3.40;;
35290;SDS011;21411;50.024;19.220;2023-05-08T13:27:26;4.40;;;3.10;;
35290;SDS011;21411;50.024;19.220;2023-05-08T13:29:52;3.50;;;3.10;;
35290;SDS011;21411;50.024;19.220;2023-05-08T13:32:19;3.70;;;3.30;;
35290;SDS011;21411;50.024;19.220;2023-05-08T13:34:46;3.50;;;3.20;;
35290;SDS011;21411;50.024;19.220;2023-05-08T13:37:12;7.60;;;4.80;;
35290;SDS011;21411;50.024;19.220;2023-05-08T13:39:38;6.40;;;5.10;;
35290;SDS011;21411;50.024;19.220;2023-05-08T13:42:06;5.20;;;3.40;;
35290;SDS011;21411;50.024;19.220;2023-05-08T13:44:32;4.20;;;3.20;;
35290;SDS011;21411;50.024;19.220;2023-05-08T13:46:59;4.60;;;2.90;;
35290;SDS011;21411;50.024;19.220;2023-05-08T13:49:25;4.70;;;3.40;;
35290;SDS011;21411;50.024;19.220;2023-05-08T13:51:52;7.20;;;3.20;;
35290;SDS011;21411;50.024;19.220;2023-05-08T13:54:19;5.20;;;2.90;;
35290;SDS011;21411;50.024;19.220;2023-05-08T13:56:45;5.90;;;2.70;;
35290;SDS011;21411;50.024;19.220;2023-05-08T13:59:13;4.90;;;3.40;;
35290;SDS011;21411;50.024;19.220;2023-05-08T14:01:40;4.10;;;3.00;;
35290;SDS011;21411;50.024;19.220;2023-05-08T14:04:06;5.00;;;2.90;;
35290;SDS011;21411;50.024;19.220;2023-05-08T14:06:32;3.80;;;2.80;;
35290;SDS011;21411;50.024;19.220;2023-05-08T14:08:59;4.50;;;2.90;;
35290;SDS011;21411;50.024;19.220;2023-05-08T14:11:25;5.70;;;3.00;;
35290;SDS011;21411;50.024;19.220;2023-05-08T14:13:52;5.70;;;3.00;;
35290;SDS011;21411;50.024;19.220;2023-05-08T14:16:19;3.80;;;2.90;;
35290;SDS011;21411;50.024;19.220;2023-05-08T14:18:45;3.70;;;2.40;;
35290;SDS011;21411;50.024;19.220;2023-05-08T14:21:12;3.60;;;2.20;;
35290;SDS011;21411;50.024;19.220;2023-05-08T14:23:38;9.00;;;2.90;;
35290;SDS011;21411;50.024;19.220;2023-05-08T14:26:05;4.30;;;2.70;;
35290;SDS011;21411;50.024;19.220;2023-05-08T14:28:32;4.80;;;3.20;;
35290;SDS011;21411;50.024;19.220;2023-05-08T14:30:58;4.40;;;3.20;;
35290;SDS011;21411;50.024;19.220;2023-05-08T14:33:24;3.60;;;2.80;;
35290;SDS011;21411;50.024;19.220;2023-05-08T14:35:51;3.40;;;2.90;;
35290;SDS011;21411;50.024;19.220;2023-05-08T14:38:17;6.20;;;3.00;;
35290;SDS011;21411;50.024;19.220;2023-05-08T14:40:44;4.60;;;3.10;;
35290;SDS011;21411;50.024;19.220;2023-05-08T14:43:10;2.70;;;2.50;;
35290;SDS011;21411;50.024;19.220;2023-05-08T14:45:37;3.60;;;2.50;;
35290;SDS011;21411;50.024;19.220;2023-05-08T14:48:03;8.30;;;3.40;;
35290;SDS011;21411;50.024;19.220;2023-05-08T14:50:31;4.50;;;2.80;;
35290;SDS011;21411;50.024;19.220;2023-05-08T14:52:57;3.50;;;3.10;;
35290;SDS011;21411;50.024;19.220;2023-05-08T14:55:24;3.10;;;2.60;;
35290;SDS011;21411;50.024;19.220;2023-05-08T14:57:50;4.70;;;3.30;;
35290;SDS011;21411;50.024;19.220;2023-05-08T15:00:17;5.00;;;3.60;;
35290;SDS011;21411;50.024;19.220;2023-05-08T15:02:44;6.30;;;3.30;;
35290;SDS011;21411;50.024;19.220;2023-05-08T15:05:10;4.30;;;2.50;;
35290;SDS011;21411;50.024;19.220;2023-05-08T15:07:37;2.70;;;2.50;;
35290;SDS011;21411;50.024;19.220;2023-05-08T15:10:04;5.70;;;3.30;;
35290;SDS011;21411;50.024;19.220;2023-05-08T15:12:32;4.70;;;2.70;;
35290;SDS011;21411;50.024;19.220;2023-05-08T15:14:59;3.10;;;2.50;;
35290;SDS011;21411;50.024;19.220;2023-05-08T15:17:25;6.20;;;2.80;;
35290;SDS011;21411;50.024;19.220;2023-05-08T15:19:51;4.50;;;3.10;;
35290;SDS011;21411;50.024;19.220;2023-05-08T15:22:18;3.40;;;2.80;;
35290;SDS011;21411;50.024;19.220;2023-05-08T15:24:44;16.10;;;4.10;;
35290;SDS011;21411;50.024;19.220;2023-05-08T15:27:11;7.10;;;3.40;;
35290;SDS011;21411;50.024;19.220;2023-05-08T15:29:37;6.30;;;3.00;;
35290;SDS011;21411;50.024;19.220;2023-05-08T15:32:05;4.50;;;3.00;;
35290;SDS011;21411;50.024;19.220;2023-05-08T15:34:31;3.90;;;3.30;;
35290;SDS011;21411;50.024;19.220;2023-05-08T15:36:58;14.00;;;10.00;;
35290;SDS011;21411;50.024;19.220;2023-05-08T15:39:24;11.90;;;10.00;;
35290;SDS011;21411;50.024;19.220;2023-05-08T15:41:50;11.10;;;8.40;;
35290;SDS011;21411;50.024;19.220;2023-05-08T15:44:17;10.40;;;9.10;;
35290;SDS011;21411;50.024;19.220;2023-05-08T15:46:44;7.10;;;6.50;;
35290;SDS011;21411;50.024;19.220;2023-05-08T15:49:10;8.30;;;5.30;;
35290;SDS011;21411;50.024;19.220;2023-05-08T15:51:37;11.50;;;6.50;;